createdAt,value
2022-09-12T00:01:19.688Z,11.60
2022-09-12T00:03:46.993Z,11.50
2022-09-12T00:06:24.192Z,11.50
2022-09-12T00:08:53.677Z,11.50
2022-09-12T00:11:20.998Z,11.40
2022-09-12T00:13:48.391Z,11.40
2022-09-12T00:16:23.391Z,11.50
2022-09-12T00:18:51.374Z,11.60
2022-09-12T00:21:18.798Z,11.60
2022-09-12T00:23:46.329Z,11.60
2022-09-12T00:26:13.683Z,11.50
2022-09-12T00:28:41.160Z,11.50
2022-09-12T00:31:11.385Z,11.50
2022-09-12T00:33:38.707Z,11.50
2022-09-12T00:36:10.731Z,11.40
2022-09-12T00:38:38.787Z,11.40
2022-09-12T00:41:06.413Z,11.40
2022-09-12T00:43:35.947Z,11.30
2022-09-12T00:46:16.744Z,11.40
2022-09-12T00:48:59.783Z,11.40
2022-09-12T00:51:27.337Z,11.40
2022-09-12T00:53:54.693Z,11.40
2022-09-12T00:56:21.901Z,11.30
2022-09-12T00:59:00.649Z,11.30
2022-09-12T01:01:32.227Z,11.20
2022-09-12T01:04:00.541Z,11.20
2022-09-12T01:06:29.343Z,11.20
2022-09-12T01:08:56.582Z,11.20
2022-09-12T01:11:23.793Z,11.20
2022-09-12T01:13:51.142Z,11.20
2022-09-12T01:16:18.407Z,11.20
2022-09-12T01:19:03.701Z,11.10
2022-09-12T01:22:18.738Z,11.20
2022-09-12T01:25:14.693Z,11.20
2022-09-12T01:27:56.691Z,11.20
2022-09-12T01:30:39.611Z,11.20
2022-09-12T01:33:28.689Z,11.30
2022-09-12T01:36:30.475Z,11.30
2022-09-12T01:39:23.020Z,11.30
2022-09-12T01:41:54.698Z,11.30
2022-09-12T01:44:44.805Z,11.30
2022-09-12T01:47:22.466Z,11.30
2022-09-12T01:49:58.789Z,11.30
2022-09-12T01:52:44.151Z,11.30
2022-09-12T01:55:25.046Z,11.30
2022-09-12T01:58:19.981Z,11.20
2022-09-12T02:01:00.232Z,11.20
2022-09-12T02:03:30.185Z,11.10
2022-09-12T02:06:03.691Z,11.10
2022-09-12T02:08:38.710Z,11.10
2022-09-12T02:11:10.676Z,11.10
2022-09-12T02:13:46.912Z,11.10
2022-09-12T02:16:20.620Z,11.00
2022-09-12T02:18:52.001Z,10.90
2022-09-12T02:21:19.665Z,11.00
2022-09-12T02:23:48.420Z,11.00
2022-09-12T02:26:30.012Z,11.00
2022-09-12T02:28:57.370Z,11.00
2022-09-12T02:31:30.885Z,10.90
2022-09-12T02:34:01.992Z,10.90
2022-09-12T02:36:32.815Z,10.90
2022-09-12T02:39:00.202Z,10.90
2022-09-12T02:41:27.450Z,10.90
2022-09-12T02:43:54.667Z,10.90
2022-09-12T02:46:52.641Z,10.90
2022-09-12T02:49:19.861Z,10.90
2022-09-12T02:51:47.185Z,10.90
2022-09-12T02:54:15.190Z,10.90
2022-09-12T02:56:43.289Z,10.90
2022-09-12T02:59:15.636Z,10.90
2022-09-12T03:02:25.802Z,11.00
2022-09-12T03:04:58.917Z,10.90
2022-09-12T03:07:39.842Z,10.90
2022-09-12T03:10:23.731Z,10.90
2022-09-12T03:12:53.851Z,10.90
2022-09-12T03:15:33.040Z,10.90
2022-09-12T03:18:32.157Z,10.90
2022-09-12T03:21:07.231Z,10.80
2022-09-12T03:23:38.871Z,10.80
2022-09-12T03:26:25.427Z,10.70
2022-09-12T03:28:53.013Z,10.70
2022-09-12T03:31:20.297Z,10.60
2022-09-12T03:33:47.516Z,10.60
2022-09-12T03:36:21.589Z,10.60
2022-09-12T03:38:48.820Z,10.60
2022-09-12T03:41:16.048Z,10.60
2022-09-12T03:43:43.243Z,10.50
2022-09-12T03:46:10.481Z,10.40
2022-09-12T03:48:37.708Z,10.40
2022-09-12T03:51:06.387Z,10.40
2022-09-12T03:53:33.903Z,10.40
2022-09-12T03:56:06.040Z,10.30
2022-09-12T03:58:33.934Z,10.30
2022-09-12T04:01:01.263Z,10.30
2022-09-12T04:03:28.480Z,10.30
2022-09-12T04:05:57.690Z,10.30
2022-09-12T04:08:26.614Z,10.30
2022-09-12T04:10:53.904Z,10.20
2022-09-12T04:13:21.532Z,10.20
2022-09-12T04:15:59.275Z,10.20
2022-09-12T04:18:26.675Z,10.10
2022-09-12T04:20:53.993Z,10.10
2022-09-12T04:23:21.228Z,10.10
2022-09-12T04:25:55.750Z,10.10
2022-09-12T04:28:23.122Z,10.10
2022-09-12T04:30:50.948Z,10.10
2022-09-12T04:33:18.478Z,10.00
2022-09-12T04:35:45.710Z,10.00
2022-09-12T04:38:13.003Z,10.10
2022-09-12T04:40:40.229Z,10.00
2022-09-12T04:43:11.197Z,10.00
2022-09-12T04:45:41.135Z,9.90
2022-09-12T04:48:08.385Z,9.90
2022-09-12T04:50:35.584Z,9.90
2022-09-12T04:53:02.877Z,9.90
2022-09-12T04:55:30.078Z,9.90
2022-09-12T04:57:57.261Z,9.90
2022-09-12T05:00:24.637Z,9.90
2022-09-12T05:02:51.862Z,9.90
2022-09-12T05:05:19.062Z,9.90
2022-09-12T05:07:46.330Z,9.90
2022-09-12T05:10:13.576Z,9.90
2022-09-12T05:12:40.843Z,9.90
2022-09-12T05:15:08.773Z,9.90
2022-09-12T05:17:36.098Z,9.90
2022-09-12T05:20:03.758Z,10.00
2022-09-12T05:22:30.991Z,10.00
2022-09-12T05:24:58.198Z,10.00
2022-09-12T05:27:25.422Z,10.00
2022-09-12T05:29:52.636Z,10.00
2022-09-12T05:32:20.704Z,10.00
2022-09-12T05:34:47.902Z,10.00
2022-09-12T05:37:15.111Z,10.10
2022-09-12T05:39:42.364Z,10.10
2022-09-12T05:42:09.605Z,10.10
2022-09-12T05:44:36.986Z,10.10
2022-09-12T05:47:04.307Z,10.20
2022-09-12T05:49:31.513Z,10.20
2022-09-12T05:51:58.716Z,10.20
2022-09-12T05:54:30.868Z,10.30
2022-09-12T05:56:58.874Z,10.30
2022-09-12T05:59:26.091Z,10.40
2022-09-12T06:01:53.290Z,10.40
2022-09-12T06:04:20.650Z,10.50
2022-09-12T06:06:48.753Z,10.50
2022-09-12T06:09:16.774Z,10.50
2022-09-12T06:11:44.857Z,10.60
2022-09-12T06:14:13.119Z,10.60
2022-09-12T06:16:40.754Z,10.70
2022-09-12T06:19:18.677Z,10.80
2022-09-12T06:21:46.427Z,10.80
2022-09-12T06:24:14.057Z,10.90
2022-09-12T06:26:41.396Z,10.90
2022-09-12T06:29:09.801Z,11.00
2022-09-12T06:31:37.920Z,11.00
2022-09-12T06:34:06.356Z,11.10
2022-09-12T06:36:36.348Z,11.20
2022-09-12T06:39:08.861Z,11.20
2022-09-12T06:41:38.453Z,11.30
2022-09-12T06:44:15.509Z,11.40
2022-09-12T06:46:42.770Z,11.40
2022-09-12T06:49:10.065Z,11.50
2022-09-12T06:51:37.640Z,11.50
2022-09-12T06:54:05.384Z,11.60
2022-09-12T06:56:32.633Z,11.70
2022-09-12T06:58:59.982Z,11.80
2022-09-12T07:01:32.080Z,11.80
2022-09-12T07:04:00.641Z,11.90
2022-09-12T07:06:38.710Z,11.90
2022-09-12T07:09:06.800Z,12.00
2022-09-12T07:11:34.998Z,12.10
2022-09-12T07:14:03.045Z,12.20
2022-09-12T07:16:30.625Z,12.30
2022-09-12T07:19:00.046Z,12.30
2022-09-12T07:21:27.484Z,12.40
2022-09-12T07:24:00.515Z,12.50
2022-09-12T07:26:28.974Z,12.60
2022-09-12T07:29:08.304Z,12.70
2022-09-12T07:31:44.105Z,12.80
2022-09-12T07:34:11.352Z,12.90
2022-09-12T07:36:39.185Z,13.10
2022-09-12T07:39:06.566Z,13.20
2022-09-12T07:41:34.018Z,13.30
2022-09-12T07:44:02.174Z,13.40
2022-09-12T07:46:30.129Z,13.40
2022-09-12T07:48:58.167Z,13.60
2022-09-12T07:51:26.447Z,13.60
2022-09-12T07:53:53.796Z,13.80
2022-09-12T07:56:22.033Z,13.80
2022-09-12T07:58:51.321Z,13.90
2022-09-12T08:01:19.863Z,14.10
2022-09-12T08:03:48.314Z,14.20
2022-09-12T08:06:24.166Z,14.30
2022-09-12T08:08:52.267Z,14.50
2022-09-12T08:11:20.275Z,14.60
2022-09-12T08:13:51.682Z,14.80
2022-09-12T08:16:22.086Z,15.00
2022-09-12T08:18:49.626Z,15.10
2022-09-12T08:21:21.353Z,15.20
2022-09-12T08:23:52.200Z,15.30
2022-09-12T08:26:19.442Z,15.40
2022-09-12T08:28:46.811Z,15.50
2022-09-12T08:31:15.733Z,15.60
2022-09-12T08:33:43.049Z,15.60
2022-09-12T08:36:11.908Z,15.70
2022-09-12T08:38:40.193Z,15.80
2022-09-12T08:41:31.759Z,15.80
2022-09-12T08:44:11.527Z,15.90
2022-09-12T08:46:41.896Z,16.00
2022-09-12T08:49:14.769Z,16.10
2022-09-12T08:51:41.990Z,16.20
2022-09-12T08:54:19.397Z,16.30
2022-09-12T08:56:46.624Z,16.40
2022-09-12T08:59:13.925Z,16.40
2022-09-12T09:01:42.715Z,16.60
2022-09-12T09:04:19.274Z,16.60
2022-09-12T09:07:01.169Z,16.60
2022-09-12T09:10:07.704Z,16.60
2022-09-12T09:12:50.196Z,16.70
2022-09-12T09:15:49.485Z,16.80
2022-09-12T09:18:24.982Z,16.90
2022-09-12T09:20:56.138Z,17.00
2022-09-12T09:23:32.400Z,17.00
2022-09-12T09:26:10.512Z,17.10
2022-09-12T09:29:02.862Z,17.20
2022-09-12T09:31:38.642Z,17.30
2022-09-12T09:34:13.330Z,17.40
2022-09-12T09:37:17.908Z,17.50
2022-09-12T09:40:19.560Z,17.60
2022-09-12T09:43:01.006Z,17.70
2022-09-12T09:45:29.751Z,17.70
2022-09-12T09:48:04.079Z,17.80
2022-09-12T09:50:31.345Z,17.80
2022-09-12T09:52:58.918Z,17.90
2022-09-12T09:55:28.360Z,18.00
2022-09-12T09:57:55.641Z,18.00
2022-09-12T10:00:30.453Z,18.00
2022-09-12T10:03:01.260Z,18.10
2022-09-12T10:05:29.045Z,18.10
2022-09-12T10:07:56.301Z,18.20
2022-09-12T10:10:23.520Z,18.30
2022-09-12T10:12:51.005Z,18.50
2022-09-12T10:15:22.815Z,18.60
2022-09-12T10:17:50.719Z,18.60
2022-09-12T10:20:40.677Z,18.60
2022-09-12T10:23:31.013Z,18.70
2022-09-12T10:26:01.337Z,18.70
2022-09-12T10:28:40.230Z,18.80
2022-09-12T10:31:08.409Z,18.90
2022-09-12T10:33:41.159Z,18.90
2022-09-12T10:36:08.491Z,18.90
2022-09-12T10:38:35.733Z,19.00
2022-09-12T10:41:04.652Z,19.10
2022-09-12T10:43:37.280Z,19.20
2022-09-12T10:46:27.394Z,19.20
2022-09-12T10:49:14.105Z,19.20
2022-09-12T10:51:41.345Z,19.20
2022-09-12T10:54:10.140Z,19.30
2022-09-12T10:57:14.399Z,19.30
2022-09-12T11:00:04.980Z,19.30
2022-09-12T11:02:49.021Z,19.40
2022-09-12T11:05:36.747Z,19.40
2022-09-12T11:08:16.189Z,19.40
2022-09-12T11:11:04.584Z,19.50
2022-09-12T11:13:55.247Z,19.60
2022-09-12T11:16:45.773Z,19.60
2022-09-12T11:19:44.173Z,19.60
2022-09-12T11:22:31.518Z,19.70
2022-09-12T11:25:37.624Z,19.80
2022-09-12T11:28:35.189Z,19.80
2022-09-12T11:31:20.547Z,19.90
2022-09-12T11:33:54.002Z,20.00
2022-09-12T11:36:33.685Z,20.00
2022-09-12T11:39:12.810Z,20.10
2022-09-12T11:41:42.132Z,20.10
2022-09-12T11:44:28.674Z,20.20
2022-09-12T11:46:56.014Z,20.30
2022-09-12T11:49:35.603Z,20.30
2022-09-12T11:52:16.696Z,20.30
2022-09-12T11:55:29.882Z,20.40
2022-09-12T11:57:58.484Z,20.50
2022-09-12T12:00:34.188Z,20.60
2022-09-12T12:03:27.026Z,20.60
2022-09-12T12:06:10.601Z,20.70
2022-09-12T12:08:41.652Z,20.80
2022-09-12T12:11:08.984Z,20.70
2022-09-12T12:13:42.254Z,20.80
2022-09-12T12:16:26.890Z,20.70
2022-09-12T12:19:01.216Z,20.80
2022-09-12T12:21:36.268Z,20.70
2022-09-12T12:24:09.462Z,20.70
2022-09-12T12:26:39.633Z,20.70
2022-09-12T12:29:13.722Z,20.70
2022-09-12T12:32:19.163Z,20.70
2022-09-12T12:34:46.996Z,20.80
2022-09-12T12:37:20.482Z,20.80
2022-09-12T12:39:51.095Z,20.80
2022-09-12T12:42:36.279Z,20.90
2022-09-12T12:45:04.275Z,20.90
2022-09-12T12:47:41.079Z,20.90
2022-09-12T12:50:13.115Z,20.90
2022-09-12T12:53:06.846Z,20.90
2022-09-12T12:55:43.324Z,21.00
2022-09-12T12:58:39.550Z,20.90
2022-09-12T13:01:09.967Z,21.00
2022-09-12T13:03:37.391Z,21.00
2022-09-12T13:06:07.220Z,21.00
2022-09-12T13:08:39.139Z,21.00
2022-09-12T13:11:15.516Z,21.00
2022-09-12T13:13:48.537Z,21.10
2022-09-12T13:16:37.779Z,21.10
2022-09-12T13:19:18.404Z,21.00
2022-09-12T13:22:06.001Z,21.00
2022-09-12T13:24:33.657Z,20.90
2022-09-12T13:27:00.863Z,20.90
2022-09-12T13:29:28.170Z,20.80
2022-09-12T13:32:01.873Z,20.80
2022-09-12T13:34:31.640Z,20.70
2022-09-12T13:37:16.930Z,20.80
2022-09-12T13:39:48.157Z,20.80
2022-09-12T13:42:46.450Z,20.80
2022-09-12T13:45:14.993Z,20.80
2022-09-12T13:48:01.906Z,20.90
2022-09-12T13:50:36.930Z,21.00
2022-09-12T13:53:05.780Z,21.00
2022-09-12T13:55:37.645Z,21.10
2022-09-12T13:58:20.978Z,21.10
2022-09-12T14:00:59.782Z,21.10
2022-09-12T14:03:47.646Z,21.10
2022-09-12T14:06:16.299Z,21.10
2022-09-12T14:08:43.747Z,21.00
2022-09-12T14:11:11.509Z,21.00
2022-09-12T14:13:39.084Z,21.00
2022-09-12T14:16:09.741Z,21.10
2022-09-12T14:18:38.039Z,21.10
2022-09-12T14:21:13.114Z,21.00
2022-09-12T14:23:42.500Z,21.00
2022-09-12T14:26:12.951Z,21.00
2022-09-12T14:28:41.757Z,21.00
2022-09-12T14:31:18.380Z,20.90
2022-09-12T14:34:15.591Z,20.90
2022-09-12T14:36:44.439Z,20.90
2022-09-12T14:39:38.168Z,20.90
2022-09-12T14:42:07.431Z,20.80
2022-09-12T14:44:34.829Z,20.60
2022-09-12T14:47:16.013Z,20.50
2022-09-12T14:49:43.198Z,20.50
2022-09-12T14:52:43.539Z,20.40
2022-09-12T14:55:20.946Z,20.30
2022-09-12T14:57:50.040Z,20.20
2022-09-12T15:00:20.882Z,20.10
2022-09-12T15:02:49.450Z,20.00
2022-09-12T15:05:22.184Z,19.90
2022-09-12T15:07:54.366Z,19.80
2022-09-12T15:10:31.010Z,19.70
2022-09-12T15:13:09.877Z,19.70
2022-09-12T15:15:38.405Z,19.60
2022-09-12T15:18:06.807Z,19.50
2022-09-12T15:20:36.458Z,19.50
2022-09-12T15:23:03.661Z,19.50
2022-09-12T15:25:30.852Z,19.50
2022-09-12T15:27:58.233Z,19.50
2022-09-12T15:30:25.444Z,19.50
2022-09-12T15:32:52.643Z,19.50
2022-09-12T15:35:22.939Z,19.50
2022-09-12T15:37:50.339Z,19.40
2022-09-12T15:40:17.865Z,19.40
2022-09-12T15:42:45.191Z,19.40
2022-09-12T15:45:20.896Z,19.40
2022-09-12T15:47:48.188Z,19.40
2022-09-12T15:50:15.490Z,19.40
2022-09-12T15:52:42.787Z,19.30
2022-09-12T15:55:25.717Z,19.30
2022-09-12T15:57:52.992Z,19.30
2022-09-12T16:00:20.315Z,19.30
2022-09-12T16:02:49.018Z,19.20
2022-09-12T16:05:21.569Z,19.20
2022-09-12T16:07:50.215Z,19.10
2022-09-12T16:10:18.789Z,19.10
2022-09-12T16:12:46.181Z,19.10
2022-09-12T16:15:16.112Z,19.00
2022-09-12T16:17:43.370Z,19.00
2022-09-12T16:20:10.812Z,19.00
2022-09-12T16:22:38.226Z,19.00
2022-09-12T16:25:05.994Z,18.90
2022-09-12T16:27:33.405Z,18.80
2022-09-12T16:30:00.722Z,18.80
2022-09-12T16:32:27.926Z,18.80
2022-09-12T16:34:55.135Z,18.70
2022-09-12T16:37:22.354Z,18.60
2022-09-12T16:39:49.863Z,18.60
2022-09-12T16:42:20.118Z,18.50
2022-09-12T16:44:47.352Z,18.50
2022-09-12T16:47:15.075Z,18.40
2022-09-12T16:49:42.321Z,18.40
2022-09-12T16:52:09.825Z,18.30
2022-09-12T16:54:37.025Z,18.20
2022-09-12T16:57:06.394Z,18.20
2022-09-12T16:59:33.731Z,18.10
2022-09-12T17:02:00.968Z,18.00
2022-09-12T17:04:28.430Z,18.00
2022-09-12T17:06:57.382Z,18.00
2022-09-12T17:09:24.669Z,17.90
2022-09-12T17:11:53.142Z,17.90
2022-09-12T17:14:20.765Z,17.80
2022-09-12T17:16:51.676Z,17.70
2022-09-12T17:19:20.223Z,17.70
2022-09-12T17:21:48.752Z,17.60
2022-09-12T17:24:17.297Z,17.60
2022-09-12T17:27:08.298Z,17.50
2022-09-12T17:29:47.017Z,17.40
2022-09-12T17:32:17.606Z,17.30
2022-09-12T17:34:44.963Z,17.30
2022-09-12T17:37:12.186Z,17.20
2022-09-12T17:39:39.447Z,17.10
2022-09-12T17:42:07.906Z,17.00
2022-09-12T17:44:35.842Z,17.00
2022-09-12T17:47:04.246Z,17.00
2022-09-12T17:49:31.723Z,16.90
2022-09-12T17:51:58.897Z,16.80
2022-09-12T17:54:27.617Z,16.70
2022-09-12T17:56:56.232Z,16.70
2022-09-12T17:59:24.744Z,16.60
2022-09-12T18:02:10.357Z,16.50
2022-09-12T18:04:37.723Z,16.50
2022-09-12T18:07:04.966Z,16.40
2022-09-12T18:09:32.187Z,16.30
2022-09-12T18:11:59.585Z,16.30
2022-09-12T18:14:27.789Z,16.20
2022-09-12T18:16:57.079Z,16.20
2022-09-12T18:19:24.422Z,16.10
2022-09-12T18:21:51.641Z,16.00
2022-09-12T18:24:18.897Z,16.00
2022-09-12T18:26:46.143Z,15.90
2022-09-12T18:29:16.769Z,15.90
2022-09-12T18:31:44.371Z,15.80
2022-09-12T18:34:14.940Z,15.80
2022-09-12T18:36:47.220Z,15.70
2022-09-12T18:39:14.708Z,15.70
2022-09-12T18:41:41.980Z,15.60
2022-09-12T18:44:10.436Z,15.60
2022-09-12T18:46:37.768Z,15.60
2022-09-12T18:49:05.537Z,15.50
2022-09-12T18:51:34.866Z,15.40
2022-09-12T18:54:06.818Z,15.40
2022-09-12T18:56:35.063Z,15.40
2022-09-12T18:59:03.546Z,15.30
2022-09-12T19:01:32.387Z,15.30
2022-09-12T19:04:00.890Z,15.10
2022-09-12T19:06:29.523Z,15.10
2022-09-12T19:08:56.989Z,15.10
2022-09-12T19:11:24.485Z,15.10
2022-09-12T19:13:52.325Z,15.00
2022-09-12T19:16:24.304Z,15.00
2022-09-12T19:18:52.426Z,14.90
2022-09-12T19:21:22.328Z,14.90
2022-09-12T19:23:49.638Z,14.90
2022-09-12T19:26:17.134Z,14.80
2022-09-12T19:28:44.437Z,14.80
2022-09-12T19:31:13.169Z,14.70
2022-09-12T19:33:40.586Z,14.70
2022-09-12T19:36:27.251Z,14.60
2022-09-12T19:38:56.404Z,14.60
2022-09-12T19:41:23.623Z,14.60
2022-09-12T19:43:50.849Z,14.50
2022-09-12T19:46:19.778Z,14.50
2022-09-12T19:48:47.338Z,14.50
2022-09-12T19:51:14.841Z,14.40
2022-09-12T19:53:42.379Z,14.40
2022-09-12T19:56:10.368Z,14.40
2022-09-12T19:58:45.261Z,14.30
2022-09-12T20:01:17.503Z,14.30
2022-09-12T20:03:45.052Z,14.30
2022-09-12T20:06:16.406Z,14.30
2022-09-12T20:08:44.020Z,14.30
2022-09-12T20:11:15.718Z,14.20
2022-09-12T20:13:43.578Z,14.20
2022-09-12T20:16:19.012Z,14.20
2022-09-12T20:18:53.170Z,14.10
2022-09-12T20:21:21.913Z,14.10
2022-09-12T20:23:49.407Z,14.00
2022-09-12T20:26:16.652Z,13.90
2022-09-12T20:28:43.858Z,13.90
2022-09-12T20:31:12.574Z,13.90
2022-09-12T20:33:40.030Z,13.80
2022-09-12T20:36:17.685Z,13.80
2022-09-12T20:38:52.056Z,13.80
2022-09-12T20:41:19.699Z,13.70
2022-09-12T20:43:54.071Z,13.60
2022-09-12T20:46:22.487Z,13.60
2022-09-12T20:48:50.675Z,13.60
2022-09-12T20:51:18.833Z,13.60
2022-09-12T20:53:46.230Z,13.60
2022-09-12T20:56:14.869Z,13.50
2022-09-12T20:58:44.513Z,13.50
2022-09-12T21:01:12.547Z,13.50
2022-09-12T21:03:40.236Z,13.50
2022-09-12T21:06:08.205Z,13.50
2022-09-12T21:08:35.794Z,13.40
2022-09-12T21:11:03.412Z,13.40
2022-09-12T21:13:30.805Z,13.40
2022-09-12T21:16:04.502Z,13.30
2022-09-12T21:18:32.017Z,13.30
2022-09-12T21:20:59.222Z,13.30
2022-09-12T21:23:27.023Z,13.30
2022-09-12T21:25:54.340Z,13.30
2022-09-12T21:28:22.085Z,13.30
2022-09-12T21:30:49.901Z,13.20
2022-09-12T21:33:18.289Z,13.20
2022-09-12T21:35:47.226Z,13.20
2022-09-12T21:38:15.245Z,13.20
2022-09-12T21:40:42.575Z,13.10
2022-09-12T21:43:12.781Z,13.10
2022-09-12T21:45:40.622Z,13.10
2022-09-12T21:48:07.973Z,13.10
2022-09-12T21:50:35.185Z,13.10
2022-09-12T21:53:02.401Z,13.10
2022-09-12T21:55:29.641Z,13.10
2022-09-12T21:57:56.933Z,13.10
2022-09-12T22:00:24.359Z,13.10
2022-09-12T22:02:51.573Z,13.00
2022-09-12T22:05:20.307Z,13.00
2022-09-12T22:07:47.505Z,13.00
2022-09-12T22:10:15.179Z,13.00
2022-09-12T22:12:46.221Z,13.00
2022-09-12T22:15:38.819Z,12.90
2022-09-12T22:18:00.888Z,12.90
2022-09-12T22:20:28.151Z,12.90
2022-09-12T22:23:13.913Z,12.80
2022-09-12T22:25:41.113Z,12.80
2022-09-12T22:28:08.314Z,12.80
2022-09-12T22:30:35.935Z,12.80
2022-09-12T22:33:03.149Z,12.80
2022-09-12T22:35:30.871Z,12.70
2022-09-12T22:37:58.085Z,12.60
2022-09-12T22:40:25.333Z,12.60
2022-09-12T22:42:52.958Z,12.60
2022-09-12T22:45:20.217Z,12.60
2022-09-12T22:47:47.428Z,12.60
2022-09-12T22:50:14.662Z,12.60
2022-09-12T22:52:41.923Z,12.60
2022-09-12T22:55:09.864Z,12.50
2022-09-12T22:57:37.371Z,12.50
2022-09-12T23:00:08.201Z,12.50
2022-09-12T23:02:35.405Z,12.40
2022-09-12T23:05:02.715Z,12.40
2022-09-12T23:07:29.927Z,12.40
2022-09-12T23:09:57.109Z,12.40
2022-09-12T23:12:24.327Z,12.50
2022-09-12T23:14:51.545Z,12.50
2022-09-12T23:17:18.741Z,12.40
2022-09-12T23:19:45.933Z,12.40
2022-09-12T23:22:13.140Z,12.30
2022-09-12T23:24:40.362Z,12.30
2022-09-12T23:27:09.292Z,12.30
2022-09-12T23:29:37.239Z,12.30
2022-09-12T23:32:06.047Z,12.30
2022-09-12T23:34:34.407Z,12.30
2022-09-12T23:37:04.414Z,12.30
2022-09-12T23:39:32.560Z,12.20
2022-09-12T23:41:59.879Z,12.30
2022-09-12T23:44:27.334Z,12.30
2022-09-12T23:46:54.977Z,12.20
2022-09-12T23:49:22.499Z,12.20
2022-09-12T23:51:49.902Z,12.20
2022-09-12T23:54:17.105Z,12.20
2022-09-12T23:56:45.539Z,12.20
2022-09-12T23:59:12.838Z,12.20
